Time;durP1;ratioP1;P1;durP2;ratioP2;P2;SDS_P1;SDS_P2;PMS_P1;PMS_P2;Temp;Humidity;BMP_temperature;BMP_pressure;BME280_temperature;BME280_humidity;BME280_pressure;Samples;Min_cycle;Max_cycle;Signal;HPM_P1;HPM_P2
2021/07/30 00:00:38;;;;;;;14.23;5.47;;;;;;;18.18;81.29;95967.19;5017045;28;20222;-67
2021/07/30 00:03:04;;;;;;;9.25;5.47;;;;;;;18.19;81.19;95974.97;5017450;28;20202;-66
2021/07/30 00:05:31;;;;;;;9.27;5.43;;;;;;;18.25;81.03;95970.56;5016342;28;21032;-65
2021/07/30 00:07:59;;;;;;;8.43;5.38;;;;;;;18.39;80.35;95970.09;5016525;28;20201;-67
2021/07/30 00:10:25;;;;;;;10.05;5.25;;;;;;;18.22;80.00;95977.16;5016823;28;20217;-66
2021/07/30 00:12:55;;;;;;;10.65;6.45;;;;;;;18.18;79.68;95972.53;5017156;28;20232;-68
2021/07/30 00:15:22;;;;;;;8.95;4.90;;;;;;;18.26;79.64;95966.88;5015720;28;20296;-66
2021/07/30 00:17:48;;;;;;;8.35;4.97;;;;;;;18.15;79.97;95965.78;5017037;28;20205;-65
2021/07/30 00:20:16;;;;;;;9.43;4.93;;;;;;;18.19;80.25;95968.81;5016767;28;20202;-68
2021/07/30 00:22:42;;;;;;;9.38;5.50;;;;;;;18.16;81.01;95974.56;5016517;28;20198;-65
2021/07/30 00:25:11;;;;;;;11.05;5.53;;;;;;;18.18;82.01;95973.34;5016527;28;20202;-67
2021/07/30 00:27:38;;;;;;;9.18;5.68;;;;;;;18.17;80.97;95965.53;5018457;28;20205;-65
2021/07/30 00:30:05;;;;;;;7.97;5.38;;;;;;;18.22;80.16;95973.69;5020644;28;20206;-68
2021/07/30 00:32:31;;;;;;;9.75;5.57;;;;;;;18.23;79.94;95970.81;5020324;28;20205;-66
2021/07/30 00:34:58;;;;;;;14.63;5.70;;;;;;;18.23;79.44;95969.97;5020826;28;20216;-67
2021/07/30 00:37:24;;;;;;;10.40;5.22;;;;;;;18.21;79.31;95961.41;5018033;28;20197;-66
2021/07/30 00:39:51;;;;;;;9.55;5.43;;;;;;;18.19;79.48;95969.63;5020481;28;20202;-67
2021/07/30 00:42:18;;;;;;;11.50;5.32;;;;;;;18.23;81.02;95967.31;5020676;28;20232;-68
2021/07/30 00:44:45;;;;;;;8.05;5.00;;;;;;;18.12;80.19;95970.75;5020748;28;20229;-66
2021/07/30 00:47:12;;;;;;;7.25;4.57;;;;;;;17.98;80.11;95967.47;5019612;28;20201;-68
2021/07/30 00:49:40;;;;;;;10.35;5.43;;;;;;;18.09;80.11;95963.22;5020562;28;20202;-68
2021/07/30 00:52:07;;;;;;;9.15;5.38;;;;;;;18.11;80.04;95969.13;5020122;28;20236;-68
2021/07/30 00:54:34;;;;;;;11.10;5.45;;;;;;;17.85;81.14;95966.88;5020239;28;20226;-68
2021/07/30 00:57:01;;;;;;;10.40;5.22;;;;;;;17.90;80.94;95975.00;5019842;28;20598;-68
2021/07/30 00:59:29;;;;;;;8.57;5.45;;;;;;;17.58;82.77;95978.94;5020311;28;20194;-66
2021/07/30 01:01:57;;;;;;;10.90;5.13;;;;;;;17.36;83.52;95983.13;5019655;28;20657;-64
2021/07/30 01:04:23;;;;;;;10.98;6.30;;;;;;;17.63;83.69;95980.91;5020231;28;20198;-68
2021/07/30 01:06:50;;;;;;;11.80;6.22;;;;;;;17.73;83.51;95985.50;5019740;28;20218;-67
2021/07/30 01:09:16;;;;;;;11.25;5.75;;;;;;;17.91;83.21;95980.09;5019340;28;20205;-68
2021/07/30 01:11:44;;;;;;;9.38;5.25;;;;;;;17.99;81.91;95978.97;5020074;28;20600;-66
2021/07/30 01:14:10;;;;;;;7.70;4.85;;;;;;;17.97;82.17;95983.69;5020671;28;20871;-68
2021/07/30 01:16:39;;;;;;;10.85;4.88;;;;;;;18.11;81.60;95977.13;5019253;28;20260;-68
2021/07/30 01:19:07;;;;;;;9.48;5.60;;;;;;;18.12;81.68;95968.09;5019097;28;20267;-66
2021/07/30 01:21:35;;;;;;;10.63;5.93;;;;;;;18.07;82.96;95968.75;5020014;28;20226;-67
2021/07/30 01:24:03;;;;;;;9.60;5.80;;;;;;;18.03;83.86;95974.78;5020127;28;20202;-66
2021/07/30 01:26:29;;;;;;;11.00;5.90;;;;;;;18.05;84.72;95978.84;5018934;28;20209;-68
2021/07/30 01:28:56;;;;;;;26.13;7.95;;;;;;;18.02;86.83;95975.81;5019601;28;20218;-68
2021/07/30 01:31:22;;;;;;;11.15;5.75;;;;;;;18.25;86.13;95983.91;5019800;28;20222;-66
2021/07/30 01:33:49;;;;;;;12.32;6.32;;;;;;;18.33;85.19;95985.19;5019156;28;20296;-68
2021/07/30 01:36:15;;;;;;;13.40;6.07;;;;;;;18.47;85.13;95977.78;5016381;28;20475;-68
2021/07/30 01:38:41;;;;;;;12.73;6.30;;;;;;;18.55;85.08;95978.22;5019779;28;20213;-67
2021/07/30 01:41:12;;;;;;;10.68;6.07;;;;;;;18.67;85.11;95972.91;5019438;28;20226;-68
2021/07/30 01:43:41;;;;;;;13.07;6.60;;;;;;;18.61;85.95;95981.81;5019579;28;20220;-68
2021/07/30 01:46:08;;;;;;;9.80;6.55;;;;;;;18.62;85.88;95981.63;5018847;28;20210;-67
2021/07/30 01:48:35;;;;;;;10.93;6.28;;;;;;;18.79;85.42;95981.69;5019164;28;21023;-68
2021/07/30 01:51:01;;;;;;;11.70;6.25;;;;;;;18.94;84.72;95982.88;5018924;28;20225;-66
2021/07/30 01:53:28;;;;;;;14.40;6.72;;;;;;;18.85;85.07;95981.59;5019480;28;20229;-69
2021/07/30 01:55:55;;;;;;;9.80;6.00;;;;;;;18.90;84.81;95981.69;5018796;28;20206;-67
2021/07/30 01:58:23;;;;;;;11.68;6.75;;;;;;;18.87;85.06;95974.16;5018811;28;20198;-67
2021/07/30 02:00:51;;;;;;;12.68;6.97;;;;;;;18.76;85.10;95969.66;5018702;28;20222;-65
2021/07/30 02:03:18;;;;;;;11.68;6.35;;;;;;;18.79;84.88;95974.53;5019247;28;20194;-68
2021/07/30 02:05:44;;;;;;;16.30;6.13;;;;;;;18.54;85.32;95973.94;5018310;28;20202;-68
2021/07/30 02:08:11;;;;;;;11.93;6.60;;;;;;;18.65;85.10;95975.81;5018853;28;20206;-67
2021/07/30 02:10:40;;;;;;;10.68;6.78;;;;;;;18.54;86.22;95973.94;5019259;28;20272;-68
2021/07/30 02:15:51;;;;;;;13.70;7.00;;;;;;;18.69;85.15;95978.81;5018080;28;20594;-66
2021/07/30 02:18:18;;;;;;;11.63;6.38;;;;;;;18.39;86.87;95975.44;5018796;28;20231;-66
2021/07/30 02:20:44;;;;;;;11.25;7.15;;;;;;;18.63;86.06;95969.06;5018730;28;20214;-66
2021/07/30 02:23:11;;;;;;;14.43;6.50;;;;;;;18.62;85.40;95970.09;5018320;28;20217;-68
2021/07/30 02:25:37;;;;;;;11.32;7.30;;;;;;;18.58;85.42;95969.78;5018434;28;20198;-65
2021/07/30 02:28:04;;;;;;;12.10;6.68;;;;;;;18.74;84.85;95965.59;5018483;28;20212;-66
2021/07/30 02:30:30;;;;;;;11.45;6.80;;;;;;;18.58;85.04;95958.28;5018347;28;20222;-68
2021/07/30 02:32:58;;;;;;;13.93;6.97;;;;;;;18.49;85.36;95955.13;5018809;28;20206;-67
2021/07/30 02:35:24;;;;;;;10.65;6.68;;;;;;;18.33;84.67;95949.72;5015215;28;20292;-68
2021/07/30 02:37:51;;;;;;;12.45;6.90;;;;;;;18.38;84.28;95958.63;5018100;28;20212;-68
2021/07/30 02:40:17;;;;;;;9.90;6.30;;;;;;;18.36;84.79;95951.91;5017868;28;20209;-67
2021/07/30 02:42:44;;;;;;;11.65;6.60;;;;;;;18.39;84.80;95949.59;5018528;28;20221;-66
2021/07/30 02:45:11;;;;;;;13.60;6.65;;;;;;;18.20;85.90;95954.44;5017973;28;20202;-68
2021/07/30 02:47:38;;;;;;;11.80;6.93;;;;;;;18.17;85.72;95942.38;5018163;28;20209;-68
2021/07/30 02:50:07;;;;;;;11.80;6.43;;;;;;;18.26;84.15;95943.66;5017760;28;20213;-67
2021/07/30 02:52:33;;;;;;;12.07;6.20;;;;;;;18.30;83.54;95949.34;5018273;28;20197;-67
2021/07/30 02:55:00;;;;;;;11.63;7.32;;;;;;;18.27;83.58;95949.81;5015122;28;20229;-69
2021/07/30 02:57:26;;;;;;;11.18;6.15;;;;;;;18.24;83.23;95948.44;5017255;28;20228;-68
2021/07/30 02:59:53;;;;;;;12.07;6.40;;;;;;;18.15;82.79;95954.28;5017852;28;20228;-65
2021/07/30 03:02:19;;;;;;;11.70;5.90;;;;;;;18.23;82.69;95959.28;5018098;28;20225;-66
2021/07/30 03:04:46;;;;;;;13.70;6.57;;;;;;;18.13;83.35;95954.50;5018129;28;20200;-67
2021/07/30 03:07:13;;;;;;;14.23;6.75;;;;;;;18.17;83.78;95960.22;5017134;28;20202;-65
2021/07/30 03:09:40;;;;;;;10.13;6.30;;;;;;;18.03;83.36;95954.25;5017478;28;20209;-66
2021/07/30 03:12:07;;;;;;;18.20;6.35;;;;;;;18.07;82.93;95958.09;5017785;28;20229;-65
2021/07/30 03:14:34;;;;;;;13.70;5.93;;;;;;;18.04;82.88;95960.41;5017010;28;20217;-68
2021/07/30 03:17:00;;;;;;;10.00;5.88;;;;;;;17.96;83.10;95956.22;5016826;28;20216;-64
2021/07/30 03:19:27;;;;;;;10.82;5.85;;;;;;;18.00;83.34;95959.25;5017754;28;20206;-66
2021/07/30 03:21:53;;;;;;;12.95;6.20;;;;;;;17.90;83.90;95959.00;5017187;28;20228;-67
2021/07/30 03:24:21;;;;;;;10.43;6.65;;;;;;;17.89;85.28;95954.69;5017690;28;20205;-67
2021/07/30 03:26:47;;;;;;;16.35;7.05;;;;;;;17.79;85.19;95957.09;5017181;28;20209;-67
2021/07/30 03:29:14;;;;;;;12.25;6.45;;;;;;;17.73;85.40;95958.84;5017062;28;20201;-67
2021/07/30 03:31:40;;;;;;;15.13;6.88;;;;;;;17.74;85.07;95959.63;5017170;28;20228;-67
2021/07/30 03:34:07;;;;;;;10.82;6.45;;;;;;;17.63;85.74;95956.94;5018256;28;20222;-67
2021/07/30 03:36:33;;;;;;;10.48;6.57;;;;;;;17.81;84.12;95955.84;5014354;28;20201;-67
2021/07/30 03:39:00;;;;;;;9.90;6.40;;;;;;;17.85;83.75;95961.53;5017473;28;20206;-67
2021/07/30 03:41:27;;;;;;;16.50;6.20;;;;;;;17.74;83.42;95959.63;5016879;28;20232;-67
2021/07/30 03:43:54;;;;;;;10.20;6.10;;;;;;;17.74;83.12;95954.31;5017522;28;20687;-67
2021/07/30 03:46:20;;;;;;;17.83;7.22;;;;;;;17.48;84.63;95962.69;5016323;28;20206;-67
2021/07/30 03:48:47;;;;;;;12.15;6.97;;;;;;;17.51;84.17;95964.88;5017614;28;20202;-67
2021/07/30 03:51:13;;;;;;;12.95;6.07;;;;;;;17.60;83.90;95968.84;5016863;28;20222;-67
2021/07/30 03:53:40;;;;;;;13.98;6.93;;;;;;;17.64;84.47;95964.69;5017051;28;20225;-67
2021/07/30 03:56:12;;;;;;;14.35;7.63;;;;;;;17.66;84.80;95970.63;5016258;28;20217;-67
2021/07/30 03:58:40;;;;;;;15.15;6.82;;;;;;;17.41;85.96;95974.47;5017259;28;20931;-67
2021/07/30 04:01:07;;;;;;;15.40;6.95;;;;;;;17.58;84.78;95968.28;5016277;28;20592;-67
2021/07/30 04:03:34;;;;;;;11.68;6.53;;;;;;;17.69;84.77;95977.34;5016610;28;20210;-67
2021/07/30 04:06:01;;;;;;;13.60;7.03;;;;;;;17.71;86.02;95974.22;5016416;28;20205;-67
2021/07/30 04:08:28;;;;;;;12.20;7.10;;;;;;;17.74;86.51;95976.47;5016677;28;20692;-67
2021/07/30 04:10:54;;;;;;;13.52;7.03;;;;;;;17.76;87.50;95974.34;5016646;28;20229;-68
2021/07/30 04:13:21;;;;;;;15.43;7.15;;;;;;;17.65;88.04;95969.00;5016952;28;20198;-67
2021/07/30 04:15:48;;;;;;;13.25;6.82;;;;;;;18.09;85.81;95964.03;5015981;28;20221;-67
2021/07/30 04:18:15;;;;;;;17.83;7.68;;;;;;;17.99;86.60;95945.09;5016822;28;20205;-67
2021/07/30 04:20:41;;;;;;;13.85;7.97;;;;;;;18.02;85.40;95941.16;5016809;28;20221;-67
2021/07/30 04:23:08;;;;;;;13.02;7.93;;;;;;;18.05;85.78;95940.69;5016750;28;21167;-67
2021/07/30 04:25:40;;;;;;;16.23;9.35;;;;;;;18.09;86.38;95939.22;5015916;28;21118;-67
2021/07/30 04:28:06;;;;;;;12.98;7.70;;;;;;;17.95;86.27;95941.28;5016548;28;20209;-67
2021/07/30 04:30:32;;;;;;;19.15;9.02;;;;;;;17.93;86.86;95942.53;5016967;28;20229;-67
2021/07/30 04:33:00;;;;;;;18.23;9.82;;;;;;;18.12;86.38;95936.88;5016531;28;20589;-68
2021/07/30 04:35:27;;;;;;;15.80;9.65;;;;;;;18.19;85.80;95940.28;5012852;28;20465;-67
2021/07/30 04:37:56;;;;;;;17.83;10.32;;;;;;;18.20;86.68;95944.59;5016670;28;20205;-70
2021/07/30 04:40:22;;;;;;;16.98;11.13;;;;;;;17.96;87.48;95936.72;5016504;28;20198;-69
2021/07/30 04:42:48;;;;;;;17.90;11.38;;;;;;;18.17;87.16;95941.53;5015871;28;20201;-66
2021/07/30 04:45:15;;;;;;;18.58;10.23;;;;;;;18.31;86.49;95934.97;5016412;28;20209;-70
2021/07/30 04:47:41;;;;;;;21.67;10.30;;;;;;;18.33;86.32;95937.16;5016734;28;20213;-69
2021/07/30 04:50:10;;;;;;;17.05;9.70;;;;;;;18.50;86.59;95926.63;5015967;28;20202;-68
2021/07/30 04:52:37;;;;;;;19.73;10.32;;;;;;;18.44;86.72;95925.69;5016998;28;20210;-67
2021/07/30 04:55:03;;;;;;;27.90;14.93;;;;;;;18.45;86.32;95927.28;5016583;28;20230;-67
2021/07/30 04:57:30;;;;;;;20.58;12.27;;;;;;;18.45;85.94;95921.97;5015218;28;20198;-67
2021/07/30 04:59:56;;;;;;;17.33;11.25;;;;;;;18.56;86.17;95928.34;5015974;28;20206;-67
2021/07/30 05:02:23;;;;;;;18.67;9.73;;;;;;;18.74;86.55;95926.34;5016426;28;20225;-67
2021/07/30 05:04:49;;;;;;;12.82;8.00;;;;;;;18.79;86.39;95929.13;5015905;28;20205;-67
2021/07/30 05:07:17;;;;;;;13.80;8.32;;;;;;;18.93;86.36;95933.19;5015634;28;20206;-67
2021/07/30 05:09:43;;;;;;;18.50;8.18;;;;;;;18.91;85.49;95927.25;5016442;28;20202;-67
2021/07/30 05:12:10;;;;;;;18.02;9.27;;;;;;;18.87;85.79;95931.44;5016285;28;20229;-70
2021/07/30 05:14:36;;;;;;;14.48;8.98;;;;;;;18.92;85.78;95934.22;5019500;28;20233;-67
2021/07/30 05:17:03;;;;;;;15.35;9.30;;;;;;;19.04;85.92;95929.66;5019315;28;20220;-66
2021/07/30 05:19:29;;;;;;;17.23;8.88;;;;;;;19.17;85.04;95932.09;5019964;28;20571;-68
2021/07/30 05:21:56;;;;;;;18.92;9.45;;;;;;;19.23;84.94;95936.50;5019543;28;21297;-67
2021/07/30 05:24:23;;;;;;;16.23;9.27;;;;;;;19.33;84.00;95937.50;5019640;28;20198;-67
2021/07/30 05:26:50;;;;;;;24.80;9.68;;;;;;;19.20;82.98;95936.97;5019233;28;20209;-67
2021/07/30 05:29:16;;;;;;;15.98;8.55;;;;;;;18.93;83.37;95931.31;5019590;28;20667;-67
2021/07/30 05:31:43;;;;;;;19.50;9.05;;;;;;;19.08;84.02;95928.16;5019842;28;20217;-67
2021/07/30 05:34:09;;;;;;;17.55;8.57;;;;;;;19.31;84.17;95933.44;5019863;28;20202;-67
2021/07/30 05:36:36;;;;;;;17.23;8.05;;;;;;;18.90;84.20;95930.97;5015204;28;20579;-67
2021/07/30 05:39:02;;;;;;;17.55;9.20;;;;;;;19.06;84.94;95935.63;5019160;28;20209;-66
2021/07/30 05:41:30;;;;;;;17.75;9.05;;;;;;;19.42;84.69;95929.91;5019645;28;20244;-67
2021/07/30 05:43:56;;;;;;;17.42;9.02;;;;;;;19.13;84.54;95933.59;5019752;28;20221;-68
2021/07/30 05:46:23;;;;;;;18.13;8.60;;;;;;;19.40;83.57;95932.00;5018813;28;20229;-68
2021/07/30 05:48:52;;;;;;;18.38;7.88;;;;;;;19.42;84.06;95932.59;5019416;28;20217;-67
2021/07/30 05:51:19;;;;;;;19.27;8.95;;;;;;;19.25;83.42;95929.06;5019053;28;20303;-67
2021/07/30 05:53:45;;;;;;;19.67;8.02;;;;;;;19.01;85.47;95930.13;5018930;28;20217;-68
2021/07/30 05:56:11;;;;;;;13.70;7.88;;;;;;;19.47;83.77;95932.69;5018249;28;20229;-66
2021/07/30 05:58:39;;;;;;;15.55;8.50;;;;;;;19.98;81.91;95926.16;5019215;28;20217;-65
2021/07/30 06:01:06;;;;;;;20.33;8.38;;;;;;;19.39;83.65;95931.22;5019216;28;20225;-66
2021/07/30 06:03:32;;;;;;;14.30;7.95;;;;;;;19.70;82.73;95930.72;5018934;28;20206;-66
2021/07/30 06:05:58;;;;;;;16.73;7.95;;;;;;;19.61;82.69;95932.97;5018337;28;20198;-65
2021/07/30 06:08:25;;;;;;;14.50;8.45;;;;;;;19.58;82.68;95938.78;5018583;28;20206;-66
2021/07/30 06:10:51;;;;;;;13.85;8.05;;;;;;;19.92;81.37;95940.53;5018606;28;20229;-66
2021/07/30 06:13:18;;;;;;;19.40;8.20;;;;;;;19.91;81.44;95936.22;5019255;28;20213;-65
2021/07/30 06:15:46;;;;;;;16.17;8.23;;;;;;;19.88;80.65;95939.34;5017942;28;20218;-67
2021/07/30 06:18:12;;;;;;;16.05;8.77;;;;;;;19.88;80.28;95935.84;5018518;28;20210;-65
2021/07/30 06:20:38;;;;;;;12.70;6.75;;;;;;;20.43;79.45;95930.38;5018754;28;20222;-66
2021/07/30 06:23:05;;;;;;;13.07;7.22;;;;;;;20.65;78.97;95933.91;5018554;28;20206;-66
2021/07/30 06:25:31;;;;;;;13.43;7.95;;;;;;;20.72;78.82;95925.72;5016665;28;20205;-65
2021/07/30 06:27:58;;;;;;;17.88;6.90;;;;;;;20.71;78.03;95924.91;5018785;28;20206;-67
2021/07/30 06:30:24;;;;;;;15.25;7.68;;;;;;;20.99;77.33;95920.25;5019052;28;20194;-67
2021/07/30 06:32:52;;;;;;;9.95;6.13;;;;;;;21.30;76.21;95924.09;5019500;28;20206;-66
2021/07/30 06:35:20;;;;;;;15.93;8.07;;;;;;;21.49;75.66;95921.63;5014313;28;20222;-66
2021/07/30 06:37:47;;;;;;;14.68;7.90;;;;;;;21.53;74.08;95921.97;5018523;28;20197;-67
2021/07/30 06:40:15;;;;;;;11.98;7.18;;;;;;;21.84;73.51;95926.59;5018194;28;20692;-66
2021/07/30 06:42:41;;;;;;;13.07;7.38;;;;;;;21.75;73.67;95920.06;5018313;28;20201;-66
2021/07/30 06:45:08;;;;;;;13.30;7.72;;;;;;;21.67;75.08;95920.53;5018275;28;20202;-66
2021/07/30 06:47:35;;;;;;;11.95;7.03;;;;;;;21.89;73.79;95930.13;5017826;28;20726;-65
2021/07/30 06:50:03;;;;;;;11.55;6.65;;;;;;;21.93;72.82;95922.38;5018114;28;20212;-67
2021/07/30 06:52:30;;;;;;;18.25;6.75;;;;;;;22.16;72.51;95922.84;5017673;28;20222;-66
2021/07/30 06:54:57;;;;;;;11.18;7.18;;;;;;;22.29;71.22;95917.13;5018057;28;20243;-67
2021/07/30 06:57:23;;;;;;;14.30;7.50;;;;;;;22.44;70.33;95927.94;5016849;28;20210;-67
2021/07/30 06:59:50;;;;;;;12.57;7.25;;;;;;;22.34;70.14;95925.19;5016433;28;20575;-67
2021/07/30 07:02:16;;;;;;;13.23;7.25;;;;;;;22.26;71.83;95918.44;5017013;28;20694;-67
2021/07/30 07:04:43;;;;;;;14.05;7.50;;;;;;;21.99;72.01;95916.00;5016607;28;20201;-68
2021/07/30 07:07:11;;;;;;;16.83;7.63;;;;;;;22.02;72.14;95926.22;5016787;28;20841;-68
2021/07/30 07:09:37;;;;;;;13.38;6.85;;;;;;;22.41;72.72;95925.78;5017772;28;20225;-67
2021/07/30 07:12:05;;;;;;;14.85;6.22;;;;;;;22.40;71.67;95918.78;5017805;28;20234;-65
2021/07/30 07:14:31;;;;;;;12.32;7.40;;;;;;;22.29;71.09;95917.91;5017698;28;20201;-66
2021/07/30 07:16:58;;;;;;;13.13;7.40;;;;;;;22.48;70.85;95921.81;5016286;28;20221;-65
2021/07/30 07:19:25;;;;;;;15.75;6.57;;;;;;;22.76;69.75;95911.53;5017372;28;20209;-65
2021/07/30 07:21:51;;;;;;;9.15;5.90;;;;;;;22.92;70.52;95917.78;5017540;28;20229;-67
2021/07/30 07:24:19;;;;;;;14.65;6.72;;;;;;;22.74;70.02;95921.72;5016324;28;20205;-67
2021/07/30 07:26:46;;;;;;;10.38;6.15;;;;;;;22.65;70.98;95921.66;5015894;28;20194;-67
2021/07/30 07:29:12;;;;;;;13.27;7.30;;;;;;;22.37;70.94;95913.94;5016955;28;20206;-67
2021/07/30 07:31:39;;;;;;;13.77;6.75;;;;;;;23.02;69.39;95912.50;5016343;28;20232;-67
2021/07/30 07:34:05;;;;;;;11.77;7.35;;;;;;;23.40;67.43;95907.56;5016669;28;20201;-66
2021/07/30 07:36:32;;;;;;;16.52;7.22;;;;;;;23.61;67.34;95910.06;5013685;28;20217;-67
2021/07/30 07:38:58;;;;;;;11.20;7.22;;;;;;;23.49;68.20;95908.66;5016661;28;20213;-67
2021/07/30 07:41:26;;;;;;;11.90;7.18;;;;;;;23.22;69.36;95908.03;5017060;28;20218;-66
2021/07/30 07:43:52;;;;;;;12.63;6.95;;;;;;;23.55;68.01;95908.41;5018058;28;20761;-67
2021/07/30 07:46:19;;;;;;;10.65;5.85;;;;;;;23.73;66.32;95907.94;5016295;28;20202;-67
2021/07/30 07:48:45;;;;;;;12.70;6.75;;;;;;;23.89;65.99;95898.03;5016805;28;20301;-66
2021/07/30 07:51:12;;;;;;;11.23;7.18;;;;;;;23.98;65.82;95897.22;5017620;28;20236;-67
2021/07/30 07:53:38;;;;;;;12.88;7.05;;;;;;;23.71;66.90;95888.56;5017132;28;20229;-67
2021/07/30 07:56:06;;;;;;;14.60;6.28;;;;;;;24.26;65.62;95888.59;5016034;28;20592;-66
2021/07/30 07:58:34;;;;;;;13.85;7.07;;;;;;;24.37;65.13;95884.84;5017155;28;20202;-66
2021/07/30 08:01:01;;;;;;;11.32;7.13;;;;;;;24.49;63.88;95882.69;5017133;28;20798;-68
2021/07/30 08:03:27;;;;;;;17.33;7.15;;;;;;;24.45;63.99;95882.44;5016375;28;20205;-68
2021/07/30 08:05:54;;;;;;;10.88;6.45;;;;;;;24.62;63.43;95880.28;5016182;28;20607;-66
2021/07/30 08:08:20;;;;;;;13.32;6.90;;;;;;;24.72;65.39;95872.97;5016558;28;20208;-66
2021/07/30 08:10:47;;;;;;;10.18;6.93;;;;;;;24.55;64.28;95876.22;5015835;28;21196;-67
2021/07/30 08:13:15;;;;;;;12.68;6.45;;;;;;;24.51;63.88;95878.66;5016188;28;20194;-67
2021/07/30 08:15:43;;;;;;;9.27;6.40;;;;;;;24.89;63.67;95878.06;5015782;28;20221;-66
2021/07/30 08:18:09;;;;;;;12.65;6.43;;;;;;;24.87;64.45;95875.63;5016405;28;20206;-67
2021/07/30 08:20:36;;;;;;;9.48;6.18;;;;;;;25.13;62.68;95874.50;5016784;28;20232;-68
2021/07/30 08:23:02;;;;;;;11.52;5.93;;;;;;;25.29;62.57;95882.25;5016870;28;20232;-67
2021/07/30 08:25:29;;;;;;;10.45;6.53;;;;;;;25.38;61.49;95877.06;5015953;28;20209;-67
2021/07/30 08:27:55;;;;;;;12.52;5.97;;;;;;;25.80;62.79;95872.00;5016471;28;20202;-67
2021/07/30 08:30:22;;;;;;;19.65;6.82;;;;;;;25.43;62.26;95872.47;5016899;28;20206;-66
2021/07/30 08:32:50;;;;;;;11.52;6.32;;;;;;;25.82;60.95;95874.13;5016955;28;20321;-67
2021/07/30 08:35:16;;;;;;;11.02;6.22;;;;;;;25.91;60.36;95867.06;5013312;28;20229;-67
2021/07/30 08:37:43;;;;;;;9.50;6.40;;;;;;;25.90;57.58;95868.16;5016526;28;20213;-67
2021/07/30 08:40:11;;;;;;;11.15;6.32;;;;;;;26.05;59.94;95857.22;5016211;28;20217;-67
2021/07/30 08:42:38;;;;;;;9.68;6.10;;;;;;;25.95;60.21;95865.44;5015523;28;20646;-68
2021/07/30 08:45:07;;;;;;;10.30;5.82;;;;;;;26.39;59.26;95858.06;5016476;28;20234;-67
2021/07/30 08:47:33;;;;;;;9.30;5.70;;;;;;;25.85;56.40;95862.78;5015115;28;20210;-67
2021/07/30 08:50:01;;;;;;;8.00;5.72;;;;;;;26.50;58.53;95859.56;5017995;28;20733;-67
2021/07/30 08:52:33;;;;;;;10.85;5.68;;;;;;;26.78;56.22;95865.00;5020165;28;20564;-67
2021/07/30 08:54:59;;;;;;;9.25;5.45;;;;;;;26.57;56.58;95866.25;5019854;28;20685;-67
2021/07/30 08:57:26;;;;;;;8.75;5.38;;;;;;;26.01;52.70;95866.19;5018795;28;20205;-67
2021/07/30 08:59:52;;;;;;;9.02;5.70;;;;;;;26.51;55.99;95866.59;5019214;28;20202;-67
2021/07/30 09:02:19;;;;;;;7.00;5.10;;;;;;;26.84;56.60;95860.31;5019528;28;20233;-67
2021/07/30 09:04:45;;;;;;;7.60;5.50;;;;;;;26.69;50.54;95868.56;5020234;28;20293;-67
2021/07/30 09:07:13;;;;;;;9.82;5.65;;;;;;;26.68;51.21;95864.25;5018301;28;20202;-68
2021/07/30 09:09:53;;;;;;;9.07;5.10;;;;;;;26.59;52.18;95872.19;5019522;28;20209;-67
2021/07/30 09:12:21;;;;;;;8.88;5.65;;;;;;;26.55;52.48;95870.34;5019023;28;20471;-68
2021/07/30 09:14:48;;;;;;;9.30;5.47;;;;;;;26.78;53.96;95866.88;5019358;28;20201;-67
2021/07/30 09:17:15;;;;;;;8.02;5.35;;;;;;;26.70;54.08;95867.50;5018549;28;20331;-68
2021/07/30 09:20:01;;;;;;;9.70;5.47;;;;;;;26.81;51.00;95860.91;5019576;28;20291;-67
2021/07/30 09:22:28;;;;;;;7.53;5.43;;;;;;;26.70;51.79;95864.78;5019724;28;20249;-67
2021/07/30 09:24:57;;;;;;;9.32;5.15;;;;;;;27.05;51.68;95867.97;5020026;28;20209;-67
2021/07/30 09:27:24;;;;;;;7.40;5.40;;;;;;;27.16;54.75;95862.16;5018919;28;20383;-67
2021/07/30 09:29:50;;;;;;;9.70;5.55;;;;;;;26.97;52.59;95852.34;5019548;28;20209;-67
2021/07/30 09:32:18;;;;;;;9.23;4.90;;;;;;;27.28;51.79;95851.69;5019442;28;20769;-67
2021/07/30 09:34:48;;;;;;;8.32;5.25;;;;;;;27.05;49.54;95848.19;5019848;28;20198;-68
2021/07/30 09:37:21;;;;;;;8.05;4.82;;;;;;;27.30;50.66;95849.53;5015905;28;20642;-67
2021/07/30 09:39:51;;;;;;;8.75;5.38;;;;;;;27.53;49.27;95840.53;5019698;28;20209;-67
2021/07/30 09:42:20;;;;;;;8.10;4.82;;;;;;;27.36;50.13;95842.94;5019362;28;20218;-67
2021/07/30 09:44:49;;;;;;;7.05;5.13;;;;;;;27.44;48.62;95842.28;5019339;28;20205;-67
2021/07/30 09:47:17;;;;;;;12.20;5.30;;;;;;;27.43;51.35;95842.56;5018894;28;20201;-67
2021/07/30 09:49:52;;;;;;;9.23;5.05;;;;;;;27.48;49.64;95834.38;5019369;28;20225;-67
2021/07/30 09:52:20;;;;;;;8.20;5.05;;;;;;;27.64;49.19;95830.41;5019027;28;21173;-68
2021/07/30 09:54:58;;;;;;;8.27;5.47;;;;;;;27.49;48.57;95828.69;5019928;28;20213;-68
2021/07/30 09:57:26;;;;;;;9.80;5.85;;;;;;;27.53;48.35;95821.56;5018229;28;20221;-67
2021/07/30 09:59:57;;;;;;;9.18;5.53;;;;;;;27.60;50.94;95830.19;5017726;28;20205;-68
2021/07/30 10:02:26;;;;;;;10.95;5.75;;;;;;;27.41;48.58;95828.53;5018924;28;20947;-67
2021/07/30 10:04:53;;;;;;;8.48;5.65;;;;;;;27.71;48.07;95824.34;5019950;28;20206;-68
2021/07/30 10:07:21;;;;;;;7.55;5.38;;;;;;;27.57;50.13;95825.38;5017606;28;20209;-68
2021/07/30 10:09:59;;;;;;;8.15;5.68;;;;;;;27.89;49.13;95820.00;5017574;28;20369;-67
2021/07/30 10:12:26;;;;;;;8.90;4.97;;;;;;;27.86;48.03;95815.16;5019357;28;20245;-67
2021/07/30 10:14:53;;;;;;;8.43;5.28;;;;;;;28.33;52.75;95806.84;5018823;28;20291;-67
2021/07/30 10:17:27;;;;;;;8.30;5.22;;;;;;;28.66;49.25;95814.63;5017827;28;20226;-68
2021/07/30 10:19:55;;;;;;;13.25;5.45;;;;;;;29.05;49.24;95808.47;5019054;28;20216;-66
2021/07/30 10:22:23;;;;;;;7.93;5.30;;;;;;;28.80;49.61;95807.34;5018625;28;20229;-67
2021/07/30 10:24:54;;;;;;;8.88;5.45;;;;;;;29.10;46.32;95802.13;5018632;28;20213;-68
2021/07/30 10:27:25;;;;;;;13.52;6.65;;;;;;;28.47;46.21;95806.56;5018146;28;20205;-66
2021/07/30 10:30:11;;;;;;;7.78;5.53;;;;;;;28.82;47.15;95791.56;5018860;28;21165;-66
2021/07/30 10:32:52;;;;;;;8.90;5.40;;;;;;;28.99;49.04;95795.28;5018368;28;20206;-68
2021/07/30 10:35:40;;;;;;;8.23;5.70;;;;;;;29.16;49.49;95788.16;5015064;28;20202;-66
2021/07/30 10:38:12;;;;;;;7.70;5.80;;;;;;;29.35;48.76;95779.91;5018474;28;20293;-68
2021/07/30 10:40:40;;;;;;;9.60;5.72;;;;;;;29.53;47.71;95781.66;5017683;28;20222;-66
2021/07/30 10:43:08;;;;;;;13.10;5.95;;;;;;;29.27;45.15;95775.16;5018397;28;20209;-67
2021/07/30 10:45:36;;;;;;;6.95;5.13;;;;;;;29.49;46.95;95773.31;5017806;28;20209;-67
2021/07/30 10:48:36;;;;;;;8.65;5.55;;;;;;;29.67;47.77;95764.22;5018349;28;20209;-66
2021/07/30 10:51:25;;;;;;;9.35;5.43;;;;;;;29.40;50.85;95763.50;5018177;28;20230;-67
2021/07/30 10:53:53;;;;;;;9.27;5.50;;;;;;;29.40;45.88;95764.28;5017848;28;20202;-67
2021/07/30 10:56:51;;;;;;;8.63;5.40;;;;;;;29.98;45.82;95752.34;5016920;28;20218;-66
2021/07/30 10:59:20;;;;;;;7.65;5.47;;;;;;;29.78;46.48;95741.94;5018423;28;20202;-66
2021/07/30 11:01:58;;;;;;;8.77;6.13;;;;;;;29.63;47.46;95749.66;5018090;28;20253;-67
2021/07/30 11:04:25;;;;;;;9.70;5.50;;;;;;;29.62;45.64;95738.00;5018268;28;20202;-66
2021/07/30 11:06:54;;;;;;;9.73;5.50;;;;;;;29.47;44.79;95745.69;5017102;28;20205;-67
2021/07/30 11:09:24;;;;;;;10.48;5.45;;;;;;;29.51;43.96;95743.97;5017039;28;20955;-67
2021/07/30 11:11:53;;;;;;;7.90;5.18;;;;;;;29.89;45.13;95737.91;5016959;28;20233;-67
2021/07/30 11:14:22;;;;;;;8.60;5.68;;;;;;;29.90;45.22;95746.84;5018395;28;20205;-68
2021/07/30 11:16:50;;;;;;;9.55;5.93;;;;;;;29.91;47.16;95730.22;5016425;28;20706;-67
2021/07/30 11:19:18;;;;;;;9.27;6.05;;;;;;;30.37;48.26;95730.66;5017554;28;20198;-67
2021/07/30 11:21:45;;;;;;;7.72;5.82;;;;;;;30.64;46.95;95730.50;5017632;28;20749;-68
2021/07/30 11:24:12;;;;;;;7.30;5.07;;;;;;;30.81;46.30;95733.31;5017689;28;20217;-68
2021/07/30 11:26:40;;;;;;;8.68;5.78;;;;;;;30.27;45.69;95723.59;5016539;28;20206;-68
2021/07/30 11:29:09;;;;;;;7.95;5.53;;;;;;;30.57;43.52;95727.44;5017486;28;20208;-67
2021/07/30 11:31:38;;;;;;;8.70;5.65;;;;;;;30.81;45.81;95722.44;5017735;28;20226;-68